WetterOnline ( https://www.wetteronline.de )

Wetter aktuell Greifswald

Aktuelles Wetter: Greifswald (6m)

6-stündlich | Neueste Meldungen
Ortszeit Temperatur Wetter
Mo, 23.09. 14:00 18.5° C leicht bewölkt
Mo, 23.09. 8:00 12.2° C fast wolkenlos
Mo, 23.09. 2:00 14.0° C wolkenlos
So, 22.09. 20:00 15.2° C wolkenlos
So, 22.09. 14:00 21.5° C fast wolkenlos
So, 22.09. 8:00 7.0° C wolkenlos
So, 22.09. 2:00 7.4° C wolkenlos
Sa, 21.09. 20:00 12.0° C wolkenlos
Ortszeit Temperatur Wetter
Mo, 23.09. 19:00 15.5° C leicht bewölkt
Mo, 23.09. 18:50 15.5° C fast wolkenlos
Mo, 23.09. 18:40 15.8° C leicht bewölkt
Mo, 23.09. 18:30 16.2° C leicht bewölkt
Mo, 23.09. 18:20 16.2° C wolkig
Mo, 23.09. 18:10 16.6° C wolkig
Mo, 23.09. 18:00 17.1° C leicht bewölkt
Mo, 23.09. 17:30 17.8° C leicht bewölkt
Mo, 23.09. 17:00 18.0° C leicht bewölkt
Mo, 23.09. 16:30 18.4° C leicht bewölkt
Mo, 23.09. 16:00 18.3° C leicht bewölkt
Ortszeit Relative Feuchte Sichtweite
Mo, 23.09. 14:00 66% 35 km
Mo, 23.09. 8:00 96% 10 km
Mo, 23.09. 2:00 94% 21 km
So, 22.09. 20:00 81% 45 km
So, 22.09. 14:00 45% 60 km
So, 22.09. 8:00 99% 4.5 km
So, 22.09. 2:00 99% 10 km
Sa, 21.09. 20:00 90% 55 km
Ortszeit Relative Feuchte Sichtweite
Mo, 23.09. 19:00 85% 27 km
Mo, 23.09. 18:50 85% -
Mo, 23.09. 18:40 83% -
Mo, 23.09. 18:30 80% 30 km
Mo, 23.09. 18:20 80% -
Mo, 23.09. 18:10 79% -
Mo, 23.09. 18:00 76% 30 km
Mo, 23.09. 17:30 73% 30 km
Mo, 23.09. 17:00 71% 35 km
Mo, 23.09. 16:30 68% 35 km
Mo, 23.09. 16:00 70% 45 km
Ortszeit Niederschlagsmenge Niederschlagsart
Mo, 23.09. 14:00 0.0 l/m2 in 6 Std. -
Mo, 23.09. 8:00 0.0 l/m2 in 12 Std. -
Mo, 23.09. 2:00 0.0 l/m2 in 6 Std. -
So, 22.09. 20:00 0.0 l/m2 in 12 Std. -
So, 22.09. 14:00 0.0 l/m2 in 6 Std. -
So, 22.09. 8:00 0.0 l/m2 in 12 Std. Nebel
So, 22.09. 2:00 0.0 l/m2 in 6 Std. -
Sa, 21.09. 20:00 0.1 l/m2 in 12 Std. -
Ortszeit Niederschlagsmenge Niederschlagsart
Mo, 23.09. 19:00 0.0 l/m2 in 1 Std. -
Mo, 23.09. 18:50 keine Meldung -
Mo, 23.09. 18:40 keine Meldung -
Mo, 23.09. 18:30 0.0 l/m2 in 1 Std. -
Mo, 23.09. 18:20 keine Meldung -
Mo, 23.09. 18:10 keine Meldung -
Mo, 23.09. 18:00 0.0 l/m2 in 1 Std. -
Mo, 23.09. 17:30 0.0 l/m2 in 1 Std. -
Mo, 23.09. 17:00 0.0 l/m2 in 1 Std. -
Mo, 23.09. 16:30 0.0 l/m2 in 1 Std. -
Mo, 23.09. 16:00 0.0 l/m2 in 1 Std. -
Ortszeit Stärke Spitze Richtung
km/h Bft. km/h Grad Sektor
Mo, 23.09. 14:00 18 3 29 90° O
Mo, 23.09. 8:00 11 2 26 100° O
Mo, 23.09. 2:00 14 3 29 80° O
So, 22.09. 20:00 11 2 25 100° O
So, 22.09. 14:00 11 2 18 120° SO
So, 22.09. 8:00 4 1 7 70° O
So, 22.09. 2:00 0 0 4 - -
Sa, 21.09. 20:00 0 0 25 - -
Ortszeit Stärke Spitze Richtung
km/h Bft. km/h Grad Sektor
Mo, 23.09. 19:00 13 3 22 80° O
Mo, 23.09. 18:50 13 3 - 80° O
Mo, 23.09. 18:40 13 3 - 80° O
Mo, 23.09. 18:30 14 3 22 80° O
Mo, 23.09. 18:20 14 3 - 80° O
Mo, 23.09. 18:10 14 3 - 80° O
Mo, 23.09. 18:00 15 3 26 80° O
Mo, 23.09. 17:30 14 3 25 80° O
Mo, 23.09. 17:00 18 3 29 80° O
Mo, 23.09. 16:30 17 3 30 90° O
Mo, 23.09. 16:00 22 4 31 90° O
Ortszeit Untergrenze Bedeckung Gattung
total tief tief mittel hoch
Mo, 23.09. 14:00 9000 m 2/8 0/8 - - Ci
Mo, 23.09. 8:00 9000 m 1/8 0/8 - - Ci
Mo, 23.09. 2:00 10500 m 0/8 0/8 - - -
So, 22.09. 20:00 - 0/8 0/8 - - -
So, 22.09. 14:00 10500 m 1/8 0/8 - - Ci
So, 22.09. 8:00 - 0/8 0/8 - - -
So, 22.09. 2:00 - 0/8 0/8 - - -
Sa, 21.09. 20:00 - 0/8 0/8 - - -
Ortszeit Bedeckungsgrad in Achtel und Wolkenuntergrenze
Mo, 23.09. 19:00 5(9000m)
Mo, 23.09. 18:50 1(9000m)
Mo, 23.09. 18:40 3(9000m)
Mo, 23.09. 18:30 5(10500m)
Mo, 23.09. 18:20 7(10500m)
Mo, 23.09. 18:10 7(10500m) 7(10500m)
Mo, 23.09. 18:00 3(10500m) 6(10500m)
Mo, 23.09. 17:30 3(10500m) 7(10500m)
Mo, 23.09. 17:00 3(9000m)
Mo, 23.09. 16:30 3(9000m)
Mo, 23.09. 16:00 3(9000m)
Ortszeit Luftdruck NN (hPa) Tendenz (hPa in 3 Std.)
Mo, 23.09. 14:00 1015 - 0,7
Mo, 23.09. 8:00 1015 + 0,8
Mo, 23.09. 2:00 1014 - 0,1
So, 22.09. 20:00 1014 + 0,3
So, 22.09. 14:00 1015 - 1,6
So, 22.09. 8:00 1017 - 0,3
So, 22.09. 2:00 1019 - 0,9
Sa, 21.09. 20:00 1020 - 0,6
Ortszeit Luftdruck NN (hPa) Tendenz (hPa in 3 Std.)
Mo, 23.09. 19:00 1015 + 0,3
Mo, 23.09. 18:50 1015 keine Meldung
Mo, 23.09. 18:40 1015 keine Meldung
Mo, 23.09. 18:30 1015 + 0,2
Mo, 23.09. 18:20 1015 keine Meldung
Mo, 23.09. 18:10 1015 keine Meldung
Mo, 23.09. 18:00 1015 + 0,1
Mo, 23.09. 17:30 1015 0,0
Mo, 23.09. 17:00 1015 + 0,1
Mo, 23.09. 16:30 1015 - 0,1
Mo, 23.09. 16:00 1015 - 0,4
Ortszeit Schneehöhe (cm)
Mo, 23.09. 14:00 0
Mo, 23.09. 8:00 0
Mo, 23.09. 2:00 0
So, 22.09. 20:00 0
So, 22.09. 14:00 0
So, 22.09. 8:00 0
So, 22.09. 2:00 0
Sa, 21.09. 20:00 0
Ortszeit Schneehöhe (cm)
Mo, 23.09. 19:00 -
Mo, 23.09. 18:50 -
Mo, 23.09. 18:40 -
Mo, 23.09. 18:30 -
Mo, 23.09. 18:20 -
Mo, 23.09. 18:10 -
Mo, 23.09. 18:00 -
Mo, 23.09. 17:30 -
Mo, 23.09. 17:00 -
Mo, 23.09. 16:30 -
Mo, 23.09. 16:00 -
Link zu dieser Seite / Seite empfehlen

Das Wetter in ...